sensor_id;sensor_type;location;lat;lon;timestamp;P1;durP1;ratioP1;P2;durP2;ratioP2
68985;SDS011;56035;37.534;-122.308;2022-11-21T00:00:38;25.08;;;11.70;;
68985;SDS011;56035;37.534;-122.308;2022-11-21T00:03:05;28.10;;;11.80;;
68985;SDS011;56035;37.534;-122.308;2022-11-21T00:05:31;27.75;;;12.07;;
68985;SDS011;56035;37.534;-122.308;2022-11-21T00:07:57;29.35;;;13.10;;
68985;SDS011;56035;37.534;-122.308;2022-11-21T00:10:24;28.33;;;12.68;;
68985;SDS011;56035;37.534;-122.308;2022-11-21T00:15:20;26.23;;;11.87;;
68985;SDS011;56035;37.534;-122.308;2022-11-21T00:17:48;30.07;;;11.40;;
68985;SDS011;56035;37.534;-122.308;2022-11-21T00:20:14;29.58;;;12.95;;
68985;SDS011;56035;37.534;-122.308;2022-11-21T00:25:07;25.90;;;11.33;;
68985;SDS011;56035;37.534;-122.308;2022-11-21T00:27:33;28.65;;;11.43;;
68985;SDS011;56035;37.534;-122.308;2022-11-21T00:29:59;26.05;;;11.43;;
68985;SDS011;56035;37.534;-122.308;2022-11-21T00:32:25;25.52;;;11.23;;
68985;SDS011;56035;37.534;-122.308;2022-11-21T00:34:51;28.02;;;11.95;;
68985;SDS011;56035;37.534;-122.308;2022-11-21T00:37:18;23.77;;;11.02;;
68985;SDS011;56035;37.534;-122.308;2022-11-21T00:39:44;22.20;;;9.48;;
68985;SDS011;56035;37.534;-122.308;2022-11-21T00:42:10;19.25;;;9.38;;
68985;SDS011;56035;37.534;-122.308;2022-11-21T00:44:36;18.33;;;8.63;;
68985;SDS011;56035;37.534;-122.308;2022-11-21T00:47:02;18.63;;;8.93;;
68985;SDS011;56035;37.534;-122.308;2022-11-21T00:49:28;21.05;;;9.88;;
68985;SDS011;56035;37.534;-122.308;2022-11-21T00:51:54;19.33;;;8.88;;
68985;SDS011;56035;37.534;-122.308;2022-11-21T00:54:20;18.92;;;8.68;;
68985;SDS011;56035;37.534;-122.308;2022-11-21T00:56:47;16.55;;;8.15;;
68985;SDS011;56035;37.534;-122.308;2022-11-21T00:59:13;15.15;;;7.95;;
68985;SDS011;56035;37.534;-122.308;2022-11-21T01:01:39;17.30;;;8.57;;
68985;SDS011;56035;37.534;-122.308;2022-11-21T01:04:05;19.90;;;8.40;;
68985;SDS011;56035;37.534;-122.308;2022-11-21T01:06:31;19.58;;;9.35;;
68985;SDS011;56035;37.534;-122.308;2022-11-21T01:08:57;18.73;;;8.35;;
68985;SDS011;56035;37.534;-122.308;2022-11-21T01:11:23;22.08;;;9.10;;
68985;SDS011;56035;37.534;-122.308;2022-11-21T01:13:51;18.92;;;9.10;;
68985;SDS011;56035;37.534;-122.308;2022-11-21T01:16:20;21.10;;;9.77;;
68985;SDS011;56035;37.534;-122.308;2022-11-21T01:18:49;21.30;;;9.60;;
68985;SDS011;56035;37.534;-122.308;2022-11-21T01:23:46;20.90;;;10.20;;
68985;SDS011;56035;37.534;-122.308;2022-11-21T01:26:15;23.03;;;10.57;;
68985;SDS011;56035;37.534;-122.308;2022-11-21T01:28:43;21.40;;;10.60;;
68985;SDS011;56035;37.534;-122.308;2022-11-21T01:31:16;20.15;;;9.73;;
68985;SDS011;56035;37.534;-122.308;2022-11-21T01:33:44;22.80;;;11.23;;
68985;SDS011;56035;37.534;-122.308;2022-11-21T01:38:46;21.97;;;10.77;;
68985;SDS011;56035;37.534;-122.308;2022-11-21T01:41:15;18.87;;;9.63;;
68985;SDS011;56035;37.534;-122.308;2022-11-21T01:43:43;19.57;;;9.20;;
68985;SDS011;56035;37.534;-122.308;2022-11-21T01:48:48;17.63;;;9.40;;
68985;SDS011;56035;37.534;-122.308;2022-11-21T01:51:42;25.83;;;10.20;;
68985;SDS011;56035;37.534;-122.308;2022-11-21T01:54:17;22.07;;;10.20;;
68985;SDS011;56035;37.534;-122.308;2022-11-21T01:57:04;21.03;;;9.80;;
68985;SDS011;56035;37.534;-122.308;2022-11-21T02:02:06;22.00;;;8.97;;
68985;SDS011;56035;37.534;-122.308;2022-11-21T02:04:35;21.70;;;9.43;;
68985;SDS011;56035;37.534;-122.308;2022-11-21T02:07:04;19.40;;;9.33;;
68985;SDS011;56035;37.534;-122.308;2022-11-21T02:09:31;19.53;;;9.17;;
68985;SDS011;56035;37.534;-122.308;2022-11-21T02:12:21;18.33;;;8.63;;
68985;SDS011;56035;37.534;-122.308;2022-11-21T02:14:48;19.98;;;8.82;;
68985;SDS011;56035;37.534;-122.308;2022-11-21T02:17:16;16.30;;;8.43;;
68985;SDS011;56035;37.534;-122.308;2022-11-21T02:27:28;16.00;;;8.67;;
68985;SDS011;56035;37.534;-122.308;2022-11-21T02:29:54;16.10;;;7.72;;
68985;SDS011;56035;37.534;-122.308;2022-11-21T02:32:22;15.52;;;7.05;;
68985;SDS011;56035;37.534;-122.308;2022-11-21T02:34:49;11.33;;;6.63;;
68985;SDS011;56035;37.534;-122.308;2022-11-21T02:37:16;15.93;;;7.60;;
68985;SDS011;56035;37.534;-122.308;2022-11-21T02:44:55;15.63;;;7.13;;
68985;SDS011;56035;37.534;-122.308;2022-11-21T02:47:29;15.05;;;7.22;;
68985;SDS011;56035;37.534;-122.308;2022-11-21T02:50:00;15.10;;;7.07;;
68985;SDS011;56035;37.534;-122.308;2022-11-21T02:52:34;15.82;;;6.97;;
68985;SDS011;56035;37.534;-122.308;2022-11-21T02:55:00;14.17;;;6.90;;
68985;SDS011;56035;37.534;-122.308;2022-11-21T02:57:26;20.23;;;7.80;;
68985;SDS011;56035;37.534;-122.308;2022-11-21T02:59:52;13.32;;;6.75;;
68985;SDS011;56035;37.534;-122.308;2022-11-21T03:02:19;14.60;;;8.07;;
68985;SDS011;56035;37.534;-122.308;2022-11-21T03:04:45;15.00;;;7.20;;
68985;SDS011;56035;37.534;-122.308;2022-11-21T03:07:11;14.02;;;6.30;;
68985;SDS011;56035;37.534;-122.308;2022-11-21T03:09:37;13.25;;;6.40;;
68985;SDS011;56035;37.534;-122.308;2022-11-21T03:12:07;14.73;;;7.57;;
68985;SDS011;56035;37.534;-122.308;2022-11-21T03:14:34;14.20;;;6.87;;
68985;SDS011;56035;37.534;-122.308;2022-11-21T03:17:01;13.73;;;6.10;;
68985;SDS011;56035;37.534;-122.308;2022-11-21T03:19:28;15.20;;;6.73;;
68985;SDS011;56035;37.534;-122.308;2022-11-21T03:21:55;14.02;;;6.88;;
68985;SDS011;56035;37.534;-122.308;2022-11-21T03:24:21;16.30;;;7.40;;
68985;SDS011;56035;37.534;-122.308;2022-11-21T03:26:47;13.48;;;5.97;;
68985;SDS011;56035;37.534;-122.308;2022-11-21T03:29:14;13.30;;;6.47;;
68985;SDS011;56035;37.534;-122.308;2022-11-21T03:31:40;11.53;;;5.93;;
68985;SDS011;56035;37.534;-122.308;2022-11-21T03:34:06;10.65;;;5.97;;
68985;SDS011;56035;37.534;-122.308;2022-11-21T03:36:33;13.65;;;6.03;;
68985;SDS011;56035;37.534;-122.308;2022-11-21T03:38:59;12.48;;;5.75;;
68985;SDS011;56035;37.534;-122.308;2022-11-21T03:41:26;14.05;;;6.55;;
68985;SDS011;56035;37.534;-122.308;2022-11-21T03:46:25;12.23;;;5.93;;
68985;SDS011;56035;37.534;-122.308;2022-11-21T03:48:53;13.03;;;6.57;;
68985;SDS011;56035;37.534;-122.308;2022-11-21T03:51:19;14.27;;;7.07;;
68985;SDS011;56035;37.534;-122.308;2022-11-21T03:53:46;11.50;;;6.13;;
68985;SDS011;56035;37.534;-122.308;2022-11-21T03:56:12;9.80;;;4.88;;
68985;SDS011;56035;37.534;-122.308;2022-11-21T03:58:38;10.70;;;5.50;;
68985;SDS011;56035;37.534;-122.308;2022-11-21T04:01:04;13.33;;;5.97;;
68985;SDS011;56035;37.534;-122.308;2022-11-21T04:03:31;12.80;;;5.68;;
68985;SDS011;56035;37.534;-122.308;2022-11-21T04:05:57;12.13;;;5.68;;
68985;SDS011;56035;37.534;-122.308;2022-11-21T04:08:24;10.73;;;6.28;;
68985;SDS011;56035;37.534;-122.308;2022-11-21T04:10:50;10.60;;;5.57;;
68985;SDS011;56035;37.534;-122.308;2022-11-21T04:13:18;10.53;;;6.10;;
68985;SDS011;56035;37.534;-122.308;2022-11-21T04:15:45;11.47;;;6.10;;
68985;SDS011;56035;37.534;-122.308;2022-11-21T04:18:11;11.77;;;5.97;;
68985;SDS011;56035;37.534;-122.308;2022-11-21T04:20:38;10.05;;;5.38;;
68985;SDS011;56035;37.534;-122.308;2022-11-21T04:23:05;10.27;;;5.80;;
68985;SDS011;56035;37.534;-122.308;2022-11-21T04:25:31;13.07;;;6.03;;
68985;SDS011;56035;37.534;-122.308;2022-11-21T04:27:58;12.85;;;6.22;;
68985;SDS011;56035;37.534;-122.308;2022-11-21T04:30:25;11.17;;;5.40;;
68985;SDS011;56035;37.534;-122.308;2022-11-21T04:32:52;11.55;;;5.20;;
68985;SDS011;56035;37.534;-122.308;2022-11-21T04:35:19;11.68;;;6.00;;
68985;SDS011;56035;37.534;-122.308;2022-11-21T04:40:13;10.83;;;5.50;;
68985;SDS011;56035;37.534;-122.308;2022-11-21T04:42:40;9.80;;;5.27;;
68985;SDS011;56035;37.534;-122.308;2022-11-21T04:45:07;11.57;;;5.30;;
68985;SDS011;56035;37.534;-122.308;2022-11-21T04:47:36;10.35;;;4.95;;
68985;SDS011;56035;37.534;-122.308;2022-11-21T04:50:03;12.73;;;5.20;;
68985;SDS011;56035;37.534;-122.308;2022-11-21T04:52:31;8.23;;;4.90;;
68985;SDS011;56035;37.534;-122.308;2022-11-21T04:54:57;12.23;;;5.32;;
68985;SDS011;56035;37.534;-122.308;2022-11-21T04:57:25;12.32;;;6.50;;
68985;SDS011;56035;37.534;-122.308;2022-11-21T04:59:53;12.77;;;5.73;;
68985;SDS011;56035;37.534;-122.308;2022-11-21T05:02:19;12.45;;;6.10;;
68985;SDS011;56035;37.534;-122.308;2022-11-21T05:04:46;12.23;;;5.90;;
68985;SDS011;56035;37.534;-122.308;2022-11-21T05:07:12;11.20;;;5.40;;
68985;SDS011;56035;37.534;-122.308;2022-11-21T05:09:39;15.05;;;5.88;;
68985;SDS011;56035;37.534;-122.308;2022-11-21T05:12:05;10.53;;;5.33;;
68985;SDS011;56035;37.534;-122.308;2022-11-21T05:14:50;9.60;;;5.27;;
68985;SDS011;56035;37.534;-122.308;2022-11-21T05:17:16;10.77;;;5.80;;
68985;SDS011;56035;37.534;-122.308;2022-11-21T05:19:42;10.10;;;5.27;;
68985;SDS011;56035;37.534;-122.308;2022-11-21T05:22:08;9.75;;;5.40;;
68985;SDS011;56035;37.534;-122.308;2022-11-21T05:24:34;11.83;;;5.50;;
68985;SDS011;56035;37.534;-122.308;2022-11-21T05:27:00;10.25;;;5.40;;
68985;SDS011;56035;37.534;-122.308;2022-11-21T05:29:27;8.68;;;5.10;;
68985;SDS011;56035;37.534;-122.308;2022-11-21T05:31:53;10.63;;;5.23;;
68985;SDS011;56035;37.534;-122.308;2022-11-21T05:34:19;12.97;;;5.87;;
68985;SDS011;56035;37.534;-122.308;2022-11-21T05:36:45;7.83;;;4.83;;
68985;SDS011;56035;37.534;-122.308;2022-11-21T05:39:11;10.73;;;5.03;;
68985;SDS011;56035;37.534;-122.308;2022-11-21T05:41:37;12.07;;;5.40;;
68985;SDS011;56035;37.534;-122.308;2022-11-21T05:44:03;9.90;;;5.77;;
68985;SDS011;56035;37.534;-122.308;2022-11-21T05:46:29;10.23;;;5.95;;
68985;SDS011;56035;37.534;-122.308;2022-11-21T05:48:56;9.63;;;5.57;;
68985;SDS011;56035;37.534;-122.308;2022-11-21T05:51:22;11.70;;;6.00;;
68985;SDS011;56035;37.534;-122.308;2022-11-21T05:53:48;9.27;;;5.20;;
68985;SDS011;56035;37.534;-122.308;2022-11-21T05:56:15;10.53;;;5.20;;
68985;SDS011;56035;37.534;-122.308;2022-11-21T05:58:43;11.13;;;5.57;;
68985;SDS011;56035;37.534;-122.308;2022-11-21T06:03:38;10.13;;;5.30;;
68985;SDS011;56035;37.534;-122.308;2022-11-21T06:06:06;12.93;;;6.00;;
68985;SDS011;56035;37.534;-122.308;2022-11-21T06:08:35;13.77;;;6.80;;
68985;SDS011;56035;37.534;-122.308;2022-11-21T06:11:03;11.73;;;5.23;;
68985;SDS011;56035;37.534;-122.308;2022-11-21T06:13:30;11.77;;;6.30;;
68985;SDS011;56035;37.534;-122.308;2022-11-21T06:15:59;10.60;;;5.17;;
68985;SDS011;56035;37.534;-122.308;2022-11-21T06:18:26;10.63;;;5.37;;
68985;SDS011;56035;37.534;-122.308;2022-11-21T06:20:59;10.80;;;5.70;;
68985;SDS011;56035;37.534;-122.308;2022-11-21T06:23:25;9.13;;;5.33;;
68985;SDS011;56035;37.534;-122.308;2022-11-21T06:25:55;11.15;;;5.65;;
68985;SDS011;56035;37.534;-122.308;2022-11-21T06:28:22;11.37;;;5.80;;
68985;SDS011;56035;37.534;-122.308;2022-11-21T06:30:49;12.10;;;5.93;;
68985;SDS011;56035;37.534;-122.308;2022-11-21T06:33:16;12.02;;;5.38;;
68985;SDS011;56035;37.534;-122.308;2022-11-21T06:35:43;12.48;;;5.82;;
68985;SDS011;56035;37.534;-122.308;2022-11-21T06:38:09;11.77;;;5.00;;
68985;SDS011;56035;37.534;-122.308;2022-11-21T06:40:38;11.93;;;5.97;;
68985;SDS011;56035;37.534;-122.308;2022-11-21T06:43:04;11.50;;;5.75;;
68985;SDS011;56035;37.534;-122.308;2022-11-21T06:45:30;13.47;;;5.13;;
68985;SDS011;56035;37.534;-122.308;2022-11-21T06:47:59;10.32;;;5.25;;
68985;SDS011;56035;37.534;-122.308;2022-11-21T06:50:27;10.37;;;5.50;;
68985;SDS011;56035;37.534;-122.308;2022-11-21T06:52:58;10.77;;;5.30;;
68985;SDS011;56035;37.534;-122.308;2022-11-21T06:55:25;9.07;;;5.40;;
68985;SDS011;56035;37.534;-122.308;2022-11-21T06:57:58;10.63;;;5.53;;
68985;SDS011;56035;37.534;-122.308;2022-11-21T07:00:25;9.63;;;5.53;;
68985;SDS011;56035;37.534;-122.308;2022-11-21T07:02:52;12.13;;;4.97;;
68985;SDS011;56035;37.534;-122.308;2022-11-21T07:05:19;10.10;;;5.33;;
68985;SDS011;56035;37.534;-122.308;2022-11-21T07:07:46;11.80;;;5.55;;
68985;SDS011;56035;37.534;-122.308;2022-11-21T07:10:12;13.60;;;5.75;;
68985;SDS011;56035;37.534;-122.308;2022-11-21T07:12:38;10.55;;;4.75;;
68985;SDS011;56035;37.534;-122.308;2022-11-21T07:15:22;11.67;;;5.73;;
68985;SDS011;56035;37.534;-122.308;2022-11-21T07:17:48;9.00;;;4.80;;
68985;SDS011;56035;37.534;-122.308;2022-11-21T07:20:14;13.07;;;5.53;;
68985;SDS011;56035;37.534;-122.308;2022-11-21T07:22:40;10.00;;;5.13;;
68985;SDS011;56035;37.534;-122.308;2022-11-21T07:25:07;11.18;;;5.75;;
68985;SDS011;56035;37.534;-122.308;2022-11-21T07:27:33;10.27;;;5.53;;
68985;SDS011;56035;37.534;-122.308;2022-11-21T07:29:59;12.13;;;5.33;;
68985;SDS011;56035;37.534;-122.308;2022-11-21T07:32:26;8.50;;;4.00;;
68985;SDS011;56035;37.534;-122.308;2022-11-21T07:34:52;10.75;;;5.13;;
68985;SDS011;56035;37.534;-122.308;2022-11-21T07:37:18;9.98;;;4.28;;
68985;SDS011;56035;37.534;-122.308;2022-11-21T07:39:44;11.60;;;5.83;;
68985;SDS011;56035;37.534;-122.308;2022-11-21T07:42:10;12.03;;;5.73;;
68985;SDS011;56035;37.534;-122.308;2022-11-21T07:44:37;11.15;;;5.40;;
68985;SDS011;56035;37.534;-122.308;2022-11-21T07:47:03;12.27;;;6.47;;
68985;SDS011;56035;37.534;-122.308;2022-11-21T07:49:30;12.25;;;5.35;;
68985;SDS011;56035;37.534;-122.308;2022-11-21T07:51:56;12.95;;;6.07;;
68985;SDS011;56035;37.534;-122.308;2022-11-21T07:54:22;13.90;;;6.22;;
68985;SDS011;56035;37.534;-122.308;2022-11-21T07:56:49;12.48;;;5.93;;
68985;SDS011;56035;37.534;-122.308;2022-11-21T07:59:15;11.48;;;5.80;;
68985;SDS011;56035;37.534;-122.308;2022-11-21T08:01:43;14.60;;;6.83;;
68985;SDS011;56035;37.534;-122.308;2022-11-21T08:04:09;11.30;;;5.28;;
68985;SDS011;56035;37.534;-122.308;2022-11-21T08:06:35;11.47;;;6.00;;
68985;SDS011;56035;37.534;-122.308;2022-11-21T08:09:02;13.83;;;6.50;;
68985;SDS011;56035;37.534;-122.308;2022-11-21T08:11:28;12.75;;;6.63;;
68985;SDS011;56035;37.534;-122.308;2022-11-21T08:16:22;12.37;;;5.70;;
68985;SDS011;56035;37.534;-122.308;2022-11-21T08:18:52;13.60;;;6.20;;
68985;SDS011;56035;37.534;-122.308;2022-11-21T08:21:18;15.63;;;6.38;;
68985;SDS011;56035;37.534;-122.308;2022-11-21T08:23:44;11.07;;;5.57;;
68985;SDS011;56035;37.534;-122.308;2022-11-21T08:26:11;13.77;;;6.20;;
68985;SDS011;56035;37.534;-122.308;2022-11-21T08:28:37;10.27;;;4.60;;
68985;SDS011;56035;37.534;-122.308;2022-11-21T08:31:03;9.80;;;4.50;;
68985;SDS011;56035;37.534;-122.308;2022-11-21T08:33:30;12.85;;;6.22;;
68985;SDS011;56035;37.534;-122.308;2022-11-21T08:35:57;14.38;;;6.50;;
68985;SDS011;56035;37.534;-122.308;2022-11-21T08:38:23;14.20;;;6.78;;
68985;SDS011;56035;37.534;-122.308;2022-11-21T08:40:49;14.10;;;6.22;;
68985;SDS011;56035;37.534;-122.308;2022-11-21T08:43:35;14.77;;;6.13;;
68985;SDS011;56035;37.534;-122.308;2022-11-21T08:46:01;15.90;;;7.03;;
68985;SDS011;56035;37.534;-122.308;2022-11-21T08:48:27;15.80;;;7.00;;
68985;SDS011;56035;37.534;-122.308;2022-11-21T08:50:55;15.50;;;7.03;;
68985;SDS011;56035;37.534;-122.308;2022-11-21T08:53:22;18.73;;;7.10;;
68985;SDS011;56035;37.534;-122.308;2022-11-21T08:55:48;15.27;;;6.57;;
68985;SDS011;56035;37.534;-122.308;2022-11-21T08:58:14;15.57;;;7.03;;
68985;SDS011;56035;37.534;-122.308;2022-11-21T09:00:40;16.93;;;7.33;;
68985;SDS011;56035;37.534;-122.308;2022-11-21T09:03:06;16.97;;;6.70;;
68985;SDS011;56035;37.534;-122.308;2022-11-21T09:05:32;15.07;;;7.27;;
68985;SDS011;56035;37.534;-122.308;2022-11-21T09:07:58;15.50;;;7.33;;
68985;SDS011;56035;37.534;-122.308;2022-11-21T09:10:25;18.80;;;7.83;;
68985;SDS011;56035;37.534;-122.308;2022-11-21T09:12:51;15.93;;;6.88;;
68985;SDS011;56035;37.534;-122.308;2022-11-21T09:15:18;15.48;;;7.00;;
68985;SDS011;56035;37.534;-122.308;2022-11-21T09:18:03;16.07;;;7.20;;
68985;SDS011;56035;37.534;-122.308;2022-11-21T09:20:30;16.02;;;7.57;;
68985;SDS011;56035;37.534;-122.308;2022-11-21T09:23:02;16.23;;;7.30;;
68985;SDS011;56035;37.534;-122.308;2022-11-21T09:25:32;13.60;;;7.17;;
68985;SDS011;56035;37.534;-122.308;2022-11-21T09:27:59;14.30;;;5.85;;
68985;SDS011;56035;37.534;-122.308;2022-11-21T09:30:29;19.37;;;7.63;;
68985;SDS011;56035;37.534;-122.308;2022-11-21T09:32:59;14.93;;;6.82;;
68985;SDS011;56035;37.534;-122.308;2022-11-21T09:35:26;22.33;;;8.10;;
68985;SDS011;56035;37.534;-122.308;2022-11-21T09:37:53;18.00;;;7.47;;
68985;SDS011;56035;37.534;-122.308;2022-11-21T09:40:19;15.32;;;6.28;;
68985;SDS011;56035;37.534;-122.308;2022-11-21T09:42:58;20.05;;;7.60;;
68985;SDS011;56035;37.534;-122.308;2022-11-21T09:48:18;20.77;;;8.30;;
68985;SDS011;56035;37.534;-122.308;2022-11-21T09:50:55;21.55;;;8.88;;
68985;SDS011;56035;37.534;-122.308;2022-11-21T09:54:11;23.43;;;8.90;;
68985;SDS011;56035;37.534;-122.308;2022-11-21T09:56:21;21.93;;;9.03;;
68985;SDS011;56035;37.534;-122.308;2022-11-21T09:58:50;15.68;;;6.10;;
68985;SDS011;56035;37.534;-122.308;2022-11-21T10:01:30;19.97;;;8.63;;
68985;SDS011;56035;37.534;-122.308;2022-11-21T10:03:57;20.70;;;8.63;;
68985;SDS011;56035;37.534;-122.308;2022-11-21T10:06:30;21.80;;;7.87;;
68985;SDS011;56035;37.534;-122.308;2022-11-21T10:09:12;18.77;;;8.50;;
68985;SDS011;56035;37.534;-122.308;2022-11-21T10:18:30;20.50;;;7.83;;
68985;SDS011;56035;37.534;-122.308;2022-11-21T10:27:01;15.97;;;7.40;;
68985;SDS011;56035;37.534;-122.308;2022-11-21T10:29:46;16.17;;;7.80;;
68985;SDS011;56035;37.534;-122.308;2022-11-21T10:32:23;16.67;;;7.03;;
68985;SDS011;56035;37.534;-122.308;2022-11-21T10:35:02;19.87;;;8.30;;
68985;SDS011;56035;37.534;-122.308;2022-11-21T10:38:00;17.17;;;7.90;;
68985;SDS011;56035;37.534;-122.308;2022-11-21T10:46:07;20.20;;;8.00;;
68985;SDS011;56035;37.534;-122.308;2022-11-21T10:48:33;18.92;;;7.85;;
68985;SDS011;56035;37.534;-122.308;2022-11-21T10:51:04;16.85;;;8.13;;
68985;SDS011;56035;37.534;-122.308;2022-11-21T10:54:01;18.87;;;8.13;;
68985;SDS011;56035;37.534;-122.308;2022-11-21T10:56:47;20.75;;;7.53;;
68985;SDS011;56035;37.534;-122.308;2022-11-21T10:59:23;19.63;;;8.02;;
68985;SDS011;56035;37.534;-122.308;2022-11-21T11:01:59;19.30;;;8.07;;
68985;SDS011;56035;37.534;-122.308;2022-11-21T11:04:37;20.37;;;8.03;;
68985;SDS011;56035;37.534;-122.308;2022-11-21T11:07:25;18.10;;;8.32;;
68985;SDS011;56035;37.534;-122.308;2022-11-21T11:09:53;22.65;;;8.32;;
68985;SDS011;56035;37.534;-122.308;2022-11-21T11:12:48;17.07;;;7.40;;
68985;SDS011;56035;37.534;-122.308;2022-11-21T11:18:03;15.10;;;6.35;;
68985;SDS011;56035;37.534;-122.308;2022-11-21T11:20:43;19.97;;;8.63;;
68985;SDS011;56035;37.534;-122.308;2022-11-21T11:25:48;20.20;;;8.60;;
68985;SDS011;56035;37.534;-122.308;2022-11-21T11:28:23;17.67;;;8.40;;
68985;SDS011;56035;37.534;-122.308;2022-11-21T11:30:53;16.77;;;7.70;;
68985;SDS011;56035;37.534;-122.308;2022-11-21T11:33:27;21.00;;;8.50;;
68985;SDS011;56035;37.534;-122.308;2022-11-21T11:36:14;18.30;;;8.07;;
68985;SDS011;56035;37.534;-122.308;2022-11-21T11:39:26;18.67;;;8.37;;
68985;SDS011;56035;37.534;-122.308;2022-11-21T11:47:59;21.80;;;8.27;;
68985;SDS011;56035;37.534;-122.308;2022-11-21T11:50:34;20.57;;;8.67;;
68985;SDS011;56035;37.534;-122.308;2022-11-21T11:53:20;21.13;;;8.43;;
68985;SDS011;56035;37.534;-122.308;2022-11-21T11:55:54;20.03;;;8.33;;
68985;SDS011;56035;37.534;-122.308;2022-11-21T11:58:30;17.97;;;7.97;;
68985;SDS011;56035;37.534;-122.308;2022-11-21T12:14:36;19.10;;;8.67;;
68985;SDS011;56035;37.534;-122.308;2022-11-21T12:17:42;22.30;;;8.60;;
68985;SDS011;56035;37.534;-122.308;2022-11-21T12:20:18;18.93;;;8.67;;
68985;SDS011;56035;37.534;-122.308;2022-11-21T12:22:45;23.13;;;9.07;;
68985;SDS011;56035;37.534;-122.308;2022-11-21T12:25:15;20.73;;;9.23;;
68985;SDS011;56035;37.534;-122.308;2022-11-21T12:27:46;19.17;;;8.20;;
68985;SDS011;56035;37.534;-122.308;2022-11-21T12:35:38;21.97;;;9.23;;
68985;SDS011;56035;37.534;-122.308;2022-11-21T12:41:27;19.50;;;8.20;;
68985;SDS011;56035;37.534;-122.308;2022-11-21T12:44:37;19.50;;;8.27;;
68985;SDS011;56035;37.534;-122.308;2022-11-21T12:51:08;20.30;;;9.10;;
68985;SDS011;56035;37.534;-122.308;2022-11-21T13:00:17;22.10;;;8.77;;
68985;SDS011;56035;37.534;-122.308;2022-11-21T13:05:50;20.63;;;8.70;;
68985;SDS011;56035;37.534;-122.308;2022-11-21T13:08:16;15.38;;;7.88;;
68985;SDS011;56035;37.534;-122.308;2022-11-21T13:10:51;17.40;;;8.60;;
68985;SDS011;56035;37.534;-122.308;2022-11-21T13:13:39;17.23;;;8.27;;
68985;SDS011;56035;37.534;-122.308;2022-11-21T13:16:10;18.27;;;8.83;;
68985;SDS011;56035;37.534;-122.308;2022-11-21T13:19:15;17.47;;;7.73;;
68985;SDS011;56035;37.534;-122.308;2022-11-21T13:21:45;15.23;;;8.47;;
68985;SDS011;56035;37.534;-122.308;2022-11-21T13:27:25;18.30;;;7.90;;
68985;SDS011;56035;37.534;-122.308;2022-11-21T13:32:40;21.07;;;8.23;;
68985;SDS011;56035;37.534;-122.308;2022-11-21T13:45:48;16.33;;;8.03;;
68985;SDS011;56035;37.534;-122.308;2022-11-21T14:06:45;17.10;;;8.23;;
68985;SDS011;56035;37.534;-122.308;2022-11-21T14:11:39;19.73;;;8.20;;
68985;SDS011;56035;37.534;-122.308;2022-11-21T14:14:28;17.33;;;8.25;;
68985;SDS011;56035;37.534;-122.308;2022-11-21T14:17:02;19.13;;;8.30;;
68985;SDS011;56035;37.534;-122.308;2022-11-21T14:19:44;17.40;;;7.47;;
68985;SDS011;56035;37.534;-122.308;2022-11-21T14:22:30;19.05;;;8.38;;
68985;SDS011;56035;37.534;-122.308;2022-11-21T14:25:09;23.07;;;8.00;;
68985;SDS011;56035;37.534;-122.308;2022-11-21T14:27:42;20.37;;;8.90;;
68985;SDS011;56035;37.534;-122.308;2022-11-21T14:30:39;21.30;;;8.20;;
68985;SDS011;56035;37.534;-122.308;2022-11-21T14:33:19;20.10;;;8.80;;
68985;SDS011;56035;37.534;-122.308;2022-11-21T14:36:03;19.80;;;8.53;;
68985;SDS011;56035;37.534;-122.308;2022-11-21T14:38:33;20.13;;;8.63;;
68985;SDS011;56035;37.534;-122.308;2022-11-21T14:46:35;22.70;;;8.60;;
68985;SDS011;56035;37.534;-122.308;2022-11-21T14:51:44;21.07;;;8.40;;
68985;SDS011;56035;37.534;-122.308;2022-11-21T14:54:18;21.03;;;8.70;;
68985;SDS011;56035;37.534;-122.308;2022-11-21T14:56:48;20.90;;;8.77;;
68985;SDS011;56035;37.534;-122.308;2022-11-21T14:59:43;21.50;;;8.90;;
68985;SDS011;56035;37.534;-122.308;2022-11-21T15:02:19;17.90;;;7.32;;
68985;SDS011;56035;37.534;-122.308;2022-11-21T15:04:48;18.40;;;8.17;;
68985;SDS011;56035;37.534;-122.308;2022-11-21T15:07:17;21.87;;;8.60;;
68985;SDS011;56035;37.534;-122.308;2022-11-21T15:09:47;19.70;;;8.60;;
68985;SDS011;56035;37.534;-122.308;2022-11-21T15:14:48;15.67;;;7.83;;
68985;SDS011;56035;37.534;-122.308;2022-11-21T15:17:21;24.00;;;9.57;;
68985;SDS011;56035;37.534;-122.308;2022-11-21T15:20:06;24.20;;;9.00;;
68985;SDS011;56035;37.534;-122.308;2022-11-21T15:22:38;20.83;;;7.90;;
68985;SDS011;56035;37.534;-122.308;2022-11-21T15:27:41;20.77;;;8.30;;
68985;SDS011;56035;37.534;-122.308;2022-11-21T15:35:27;21.70;;;8.10;;
68985;SDS011;56035;37.534;-122.308;2022-11-21T15:38:16;21.17;;;8.50;;
68985;SDS011;56035;37.534;-122.308;2022-11-21T15:41:41;19.43;;;8.30;;
68985;SDS011;56035;37.534;-122.308;2022-11-21T15:46:37;20.53;;;9.17;;
68985;SDS011;56035;37.534;-122.308;2022-11-21T15:49:07;19.80;;;8.27;;
68985;SDS011;56035;37.534;-122.308;2022-11-21T15:51:36;19.47;;;8.37;;
68985;SDS011;56035;37.534;-122.308;2022-11-21T15:54:04;19.63;;;8.20;;
68985;SDS011;56035;37.534;-122.308;2022-11-21T15:56:32;21.10;;;8.53;;
68985;SDS011;56035;37.534;-122.308;2022-11-21T15:58:58;20.80;;;8.75;;
68985;SDS011;56035;37.534;-122.308;2022-11-21T16:01:25;16.73;;;7.53;;
68985;SDS011;56035;37.534;-122.308;2022-11-21T16:03:57;18.13;;;7.77;;
68985;SDS011;56035;37.534;-122.308;2022-11-21T16:06:25;15.70;;;7.43;;
68985;SDS011;56035;37.534;-122.308;2022-11-21T16:08:52;15.38;;;7.07;;
68985;SDS011;56035;37.534;-122.308;2022-11-21T16:11:22;17.25;;;7.53;;
68985;SDS011;56035;37.534;-122.308;2022-11-21T16:13:54;16.97;;;6.90;;
68985;SDS011;56035;37.534;-122.308;2022-11-21T16:16:23;15.43;;;7.63;;
68985;SDS011;56035;37.534;-122.308;2022-11-21T16:18:50;14.83;;;7.53;;
68985;SDS011;56035;37.534;-122.308;2022-11-21T16:21:17;14.02;;;6.60;;
68985;SDS011;56035;37.534;-122.308;2022-11-21T16:23:43;15.02;;;6.72;;
68985;SDS011;56035;37.534;-122.308;2022-11-21T16:26:09;12.68;;;6.47;;
68985;SDS011;56035;37.534;-122.308;2022-11-21T16:28:36;12.35;;;5.68;;
68985;SDS011;56035;37.534;-122.308;2022-11-21T16:31:03;14.88;;;6.65;;
68985;SDS011;56035;37.534;-122.308;2022-11-21T16:33:30;15.13;;;7.13;;
68985;SDS011;56035;37.534;-122.308;2022-11-21T16:35:57;16.93;;;7.40;;
68985;SDS011;56035;37.534;-122.308;2022-11-21T16:38:25;16.95;;;7.90;;
68985;SDS011;56035;37.534;-122.308;2022-11-21T16:40:55;19.23;;;8.47;;
68985;SDS011;56035;37.534;-122.308;2022-11-21T16:43:23;17.30;;;8.00;;
68985;SDS011;56035;37.534;-122.308;2022-11-21T16:48:16;16.50;;;8.40;;
68985;SDS011;56035;37.534;-122.308;2022-11-21T16:53:10;16.07;;;7.93;;
68985;SDS011;56035;37.534;-122.308;2022-11-21T16:55:36;15.70;;;8.07;;
68985;SDS011;56035;37.534;-122.308;2022-11-21T16:58:02;13.00;;;7.07;;
68985;SDS011;56035;37.534;-122.308;2022-11-21T17:00:28;14.80;;;7.47;;
68985;SDS011;56035;37.534;-122.308;2022-11-21T17:02:54;16.48;;;7.55;;